Time;durP1;ratioP1;P1;durP2;ratioP2;P2;SDS_P1;SDS_P2;PMS_P1;PMS_P2;Temp;Humidity;BMP_temperature;BMP_pressure;BME280_temperature;BME280_humidity;BME280_pressure;Samples;Min_cycle;Max_cycle;Signal;HPM_P1;HPM_P2
2022/07/03 00:03:27;;;;;;;2.75;1.45;;;;;;;18.12;62.25;101737.41;10475353;28;20140;-69
2022/07/03 00:08:27;;;;;;;1.77;1.63;;;;;;;18.11;62.17;101735.75;10476617;28;20037;-68
2022/07/03 00:13:27;;;;;;;6.80;1.35;;;;;;;18.01;64.30;101735.44;10469239;28;20033;-69
2022/07/03 00:18:28;;;;;;;0.95;0.77;;;;;;;18.02;63.13;101732.47;10469451;28;20048;-69
2022/07/03 00:23:52;;;;;;;2.67;1.30;;;;;;;18.03;64.62;101731.41;10461527;28;20025;-70
2022/07/03 00:28:52;;;;;;;4.32;2.25;;;;;;;18.10;65.05;101736.81;10441736;28;20056;-68
2022/07/03 00:33:53;;;;;;;2.20;1.75;;;;;;;18.12;65.00;101721.84;10458007;28;20033;-69
2022/07/03 00:38:53;;;;;;;4.75;1.20;;;;;;;18.15;63.38;101736.13;10457981;28;20090;-68
2022/07/03 00:43:53;;;;;;;4.18;2.08;;;;;;;18.12;65.82;101738.28;10473823;28;20529;-68
2022/07/03 00:48:55;;;;;;;1.20;1.13;;;;;;;18.16;64.28;101726.88;10458169;28;20048;-68
2022/07/03 00:53:56;;;;;;;3.53;0.88;;;;;;;18.11;63.59;101722.88;10459075;28;20473;-69
2022/07/03 00:58:59;;;;;;;1.77;1.25;;;;;;;18.06;63.75;101721.88;10473918;28;20091;-68
2022/07/03 01:04:32;;;;;;;2.08;1.42;;;;;;;17.97;65.86;101723.28;10458748;28;20060;-69
2022/07/03 01:09:42;;;;;;;1.45;1.02;;;;;;;17.93;65.23;101730.25;10422654;28;20388;-69
2022/07/03 01:15:14;;;;;;;1.35;1.25;;;;;;;17.87;67.91;101724.63;10456790;28;20096;-69
2022/07/03 01:20:15;;;;;;;9.48;1.00;;;;;;;17.91;66.17;101710.47;10457863;28;20039;-68
2022/07/03 01:25:26;;;;;;;2.80;1.27;;;;;;;17.99;67.94;101730.16;10439945;28;20033;-68
2022/07/03 01:30:28;;;;;;;0.75;0.75;;;;;;;18.04;67.81;101715.81;10457941;28;20060;-68
2022/07/03 01:35:33;;;;;;;3.30;1.08;;;;;;;18.05;66.02;101712.81;10440322;28;20120;-69
2022/07/03 01:40:34;;;;;;;6.32;0.85;;;;;;;18.09;65.87;101715.94;10457216;28;20025;-68
2022/07/03 01:45:45;;;;;;;4.10;1.13;;;;;;;18.10;65.96;101713.00;10457473;28;20457;-69
2022/07/03 01:50:45;;;;;;;7.90;1.05;;;;;;;18.14;65.76;101707.88;10439514;28;20032;-69
2022/07/03 01:55:46;;;;;;;2.05;1.35;;;;;;;18.19;65.14;101707.19;10455575;28;20033;-69
2022/07/03 02:01:20;;;;;;;4.38;1.08;;;;;;;18.07;66.27;101709.88;10456475;28;20052;-69
2022/07/03 02:06:28;;;;;;;2.17;0.85;;;;;;;17.84;65.63;101696.84;10468299;28;20041;-69
2022/07/03 02:11:35;;;;;;;6.10;1.30;;;;;;;17.77;66.25;101702.38;10475871;28;20032;-68
2022/07/03 02:17:00;;;;;;;8.90;1.35;;;;;;;17.78;67.54;101703.22;10481727;28;20025;-68
2022/07/03 02:22:00;;;;;;;2.38;1.40;;;;;;;17.67;69.00;101680.09;10465419;28;20450;-68
2022/07/03 02:27:04;;;;;;;4.70;1.52;;;;;;;17.75;68.35;101681.72;10465627;28;20021;-68
2022/07/03 02:32:07;;;;;;;2.58;1.48;;;;;;;17.73;69.57;101681.94;10463146;28;20025;-68
2022/07/03 02:37:11;;;;;;;1.95;1.23;;;;;;;17.78;67.87;101684.03;10465828;28;20036;-68
2022/07/03 02:42:19;;;;;;;3.92;1.48;;;;;;;17.75;66.95;101679.81;10467850;28;20476;-69
2022/07/03 02:47:42;;;;;;;3.22;1.30;;;;;;;17.63;67.57;101692.56;10470829;28;20025;-68
2022/07/03 02:53:06;;;;;;;2.78;1.85;;;;;;;17.63;67.60;101692.56;10463308;28;20032;-69
2022/07/03 02:58:41;;;;;;;8.80;1.33;;;;;;;17.57;67.92;101693.47;10463185;28;20033;-68
2022/07/03 03:03:45;;;;;;;2.65;1.20;;;;;;;17.30;67.82;101682.75;10478581;28;20107;-69
2022/07/03 03:08:50;;;;;;;30.42;16.75;;;;;;;17.22;68.38;101688.50;10461980;28;20033;-69
2022/07/03 03:13:55;;;;;;;15.38;6.28;;;;;;;17.14;69.09;101697.00;10460844;28;20122;-69
2022/07/03 03:18:56;;;;;;;1.80;1.10;;;;;;;17.10;68.86;101696.59;10462523;28;20032;-69
2022/07/03 03:23:56;;;;;;;1.98;1.63;;;;;;;17.01;68.90;101697.09;10460430;28;20044;-68
2022/07/03 03:28:56;;;;;;;3.38;1.27;;;;;;;16.76;69.09;101700.59;10476872;28;20033;-69
2022/07/03 03:33:57;;;;;;;4.00;1.30;;;;;;;16.68;70.93;101698.91;10460414;28;20459;-70
2022/07/03 03:38:57;;;;;;;2.45;1.70;;;;;;;16.70;70.45;101698.72;10460441;28;20032;-68
2022/07/03 03:43:58;;;;;;;1.25;1.15;;;;;;;16.72;70.47;101707.53;10476429;28;20468;-68
2022/07/03 03:48:58;;;;;;;1.88;1.70;;;;;;;16.75;70.94;101709.84;10465351;28;20063;-69
2022/07/03 03:53:58;;;;;;;4.75;2.40;;;;;;;16.80;70.46;101704.56;10466246;28;20102;-68
2022/07/03 03:58:59;;;;;;;1.90;1.25;;;;;;;16.75;71.27;101701.63;10468047;28;20059;-70
2022/07/03 04:03:59;;;;;;;4.28;2.10;;;;;;;16.68;71.99;101701.66;10461594;28;20053;-71
2022/07/03 04:09:00;;;;;;;5.32;1.23;;;;;;;16.67;71.52;101705.44;10461895;28;20041;-71
2022/07/03 04:14:00;;;;;;;7.80;2.20;;;;;;;16.73;73.26;101706.47;10460968;28;20032;-70
2022/07/03 04:19:01;;;;;;;5.53;2.97;;;;;;;16.72;74.98;101702.91;10461755;28;20040;-69
2022/07/03 04:24:01;;;;;;;10.02;2.00;;;;;;;16.72;74.92;101711.13;10458434;28;20548;-68
2022/07/03 04:29:01;;;;;;;3.88;1.90;;;;;;;16.63;75.53;101714.31;10459990;28;20041;-68
2022/07/03 04:34:02;;;;;;;5.90;2.13;;;;;;;16.55;77.28;101718.13;10457068;28;20170;-69
2022/07/03 04:39:02;;;;;;;12.65;1.80;;;;;;;16.59;78.77;101718.53;10460550;28;20033;-69
2022/07/03 04:44:02;;;;;;;5.20;1.77;;;;;;;16.69;79.96;101713.44;10474358;28;20455;-69
2022/07/03 04:49:03;;;;;;;3.50;2.58;;;;;;;17.56;80.75;101719.19;10459165;28;20037;-69
2022/07/03 04:54:03;;;;;;;4.22;2.00;;;;;;;18.34;82.30;101721.34;10459435;28;20354;-69
2022/07/03 04:59:04;;;;;;;2.50;2.00;;;;;;;18.51;80.24;101716.94;10458231;28;20056;-69
2022/07/03 05:04:05;;;;;;;5.75;2.42;;;;;;;18.31;81.43;101724.56;10467939;28;20041;-69
2022/07/03 05:09:05;;;;;;;4.18;2.83;;;;;;;18.23;79.78;101720.22;10481696;28;20033;-69
2022/07/03 05:14:05;;;;;;;6.10;3.00;;;;;;;19.48;77.88;101726.97;10465530;28;20037;-69
2022/07/03 05:19:06;;;;;;;10.05;3.60;;;;;;;20.36;78.09;101727.91;10458005;28;20044;-70
2022/07/03 05:24:06;;;;;;;4.40;2.80;;;;;;;21.02;75.63;101725.66;10458188;28;20484;-69
2022/07/03 05:29:07;;;;;;;6.15;2.58;;;;;;;21.32;75.49;101730.91;10458042;28;20036;-69
2022/07/03 05:34:08;;;;;;;5.40;2.35;;;;;;;21.50;74.09;101730.66;10456775;28;20033;-69
2022/07/03 05:44:27;;;;;;;6.35;2.72;;;;;;;22.16;71.83;101721.75;10457008;28;20036;-68
2022/07/03 05:49:27;;;;;;;6.47;2.95;;;;;;;22.41;69.79;101727.63;10455636;28;20033;-69
2022/07/03 05:54:28;;;;;;;5.70;2.42;;;;;;;22.84;68.27;101730.59;10456902;28;20040;-69
2022/07/03 05:59:28;;;;;;;2.33;2.13;;;;;;;23.33;67.19;101734.16;10456684;28;20431;-69
2022/07/03 06:04:28;;;;;;;7.00;2.70;;;;;;;23.50;66.86;101730.44;10455257;28;20045;-69
2022/07/03 06:09:29;;;;;;;7.13;2.28;;;;;;;23.05;67.74;101732.50;10457147;28;20423;-69
2022/07/03 06:14:29;;;;;;;3.50;2.78;;;;;;;22.28;68.87;101728.00;10456415;28;20079;-69
2022/07/03 06:19:29;;;;;;;3.47;2.42;;;;;;;22.02;70.23;101732.31;10455079;28;20041;-69
2022/07/03 06:24:30;;;;;;;4.22;2.20;;;;;;;21.69;70.48;101734.00;10456656;28;20534;-69
2022/07/03 06:29:30;;;;;;;3.05;2.55;;;;;;;21.46;71.11;101743.28;10457048;28;20090;-69
2022/07/03 06:34:31;;;;;;;2.80;1.83;;;;;;;21.26;70.74;101734.66;10455952;28;20522;-69
2022/07/03 06:39:31;;;;;;;3.50;1.85;;;;;;;21.54;69.75;101740.13;10456459;28;20044;-69
2022/07/03 06:44:32;;;;;;;2.10;2.00;;;;;;;23.56;66.49;101727.44;10455735;28;20120;-70
2022/07/03 06:49:33;;;;;;;7.68;2.53;;;;;;;22.71;67.10;101738.19;10454390;28;20423;-69
2022/07/03 06:54:33;;;;;;;3.78;2.53;;;;;;;23.98;64.53;101729.41;10454893;28;20120;-70
2022/07/03 06:59:33;;;;;;;6.07;1.98;;;;;;;23.41;64.39;101736.44;10462249;28;20116;-70
2022/07/03 07:04:34;;;;;;;7.32;2.53;;;;;;;22.27;67.01;101737.34;10490448;28;20118;-68
2022/07/03 07:09:34;;;;;;;5.13;2.53;;;;;;;21.64;67.99;101755.16;10504163;28;20153;-74
2022/07/03 07:14:35;;;;;;;3.67;2.22;;;;;;;21.19;68.95;101756.00;10486477;28;20033;-71
2022/07/03 07:19:35;;;;;;;5.40;2.38;;;;;;;21.27;68.47;101766.59;10502804;28;20055;-69
2022/07/03 07:24:35;;;;;;;2.05;1.95;;;;;;;22.41;67.94;101763.50;10485956;28;20025;-69
2022/07/03 07:29:36;;;;;;;4.57;2.65;;;;;;;22.73;66.64;101760.03;10508913;28;20044;-70
2022/07/03 07:34:36;;;;;;;9.18;2.53;;;;;;;22.35;66.39;101769.19;10511469;28;20029;-72
2022/07/03 07:39:37;;;;;;;3.45;1.92;;;;;;;22.05;66.88;101774.00;10492477;28;20032;-71
2022/07/03 07:44:37;;;;;;;1.50;1.40;;;;;;;21.43;68.72;101784.28;10502898;28;20036;-70
2022/07/03 07:49:37;;;;;;;1.67;1.58;;;;;;;20.94;69.81;101781.97;10503960;28;20416;-71
2022/07/03 07:54:38;;;;;;;4.18;2.45;;;;;;;23.07;66.38;101781.97;10502672;28;20035;-71
2022/07/03 07:59:38;;;;;;;1.70;1.52;;;;;;;25.06;62.68;101775.03;10502689;28;20123;-70
2022/07/03 08:09:57;;;;;;;2.55;2.35;;;;;;;24.00;62.77;101779.78;10486210;28;20032;-71
2022/07/03 08:14:58;;;;;;;4.88;2.08;;;;;;;23.10;64.55;101784.22;10501957;28;20040;-70
2022/07/03 08:19:58;;;;;;;3.33;2.15;;;;;;;22.49;65.64;101787.03;10502593;28;20031;-71
2022/07/03 08:24:58;;;;;;;4.00;1.55;;;;;;;22.12;67.02;101786.78;10484019;28;20039;-70
2022/07/03 08:29:59;;;;;;;5.60;2.20;;;;;;;22.66;66.12;101792.53;10502403;28;20044;-70
2022/07/03 08:34:59;;;;;;;5.85;1.92;;;;;;;23.79;63.16;101777.97;10501110;28;20090;-71
2022/07/03 08:40:00;;;;;;;3.28;1.40;;;;;;;23.52;63.98;101791.84;10501529;28;20127;-71
2022/07/03 08:45:01;;;;;;;0.98;0.90;;;;;;;22.93;64.59;101776.84;10499912;28;20040;-66
2022/07/03 08:50:02;;;;;;;1.23;0.98;;;;;;;22.16;66.05;101777.78;10498291;28;20029;-66
2022/07/03 08:55:03;;;;;;;2.55;1.65;;;;;;;21.36;67.47;101798.22;10499699;28;20143;-65
2022/07/03 09:00:05;;;;;;;1.08;1.02;;;;;;;20.95;68.18;101786.38;10497812;28;20040;-65
2022/07/03 09:05:06;;;;;;;2.97;1.55;;;;;;;20.66;69.33;101802.88;10498613;28;20404;-68
2022/07/03 09:10:08;;;;;;;3.03;1.63;;;;;;;20.62;69.21;101803.63;10498650;28;20032;-67
2022/07/03 09:15:10;;;;;;;1.20;1.20;;;;;;;20.78;68.08;101804.78;10481033;28;20048;-69
2022/07/03 09:20:11;;;;;;;2.97;1.50;;;;;;;21.88;68.23;101799.91;10480578;28;20037;-69
2022/07/03 09:25:13;;;;;;;1.77;1.30;;;;;;;22.72;65.73;101799.78;10498257;28;20098;-71
2022/07/03 09:30:14;;;;;;;8.75;2.05;;;;;;;23.74;63.71;101795.38;10481489;28;20101;-68
2022/07/03 09:35:18;;;;;;;1.02;1.00;;;;;;;24.57;61.57;101792.06;10499087;28;20391;-68
2022/07/03 09:40:18;;;;;;;1.15;1.15;;;;;;;24.62;62.06;101794.84;10498289;28;20031;-69
2022/07/03 09:45:19;;;;;;;2.13;1.52;;;;;;;23.73;63.10;101804.75;10498436;28;20039;-67
2022/07/03 09:50:19;;;;;;;2.22;1.83;;;;;;;23.13;63.31;101803.91;10480584;28;20030;-68
2022/07/03 09:55:20;;;;;;;1.48;1.38;;;;;;;23.96;61.43;101802.72;10500594;28;20074;-69
2022/07/03 10:00:24;;;;;;;1.55;1.48;;;;;;;26.29;57.38;101802.81;10484027;28;20047;-68
2022/07/03 10:05:32;;;;;;;1.42;1.33;;;;;;;25.69;58.18;101808.97;10502946;28;20044;-68
2022/07/03 10:10:43;;;;;;;1.92;1.23;;;;;;;24.56;57.63;101807.00;10479731;28;20040;-69
2022/07/03 10:15:43;;;;;;;1.60;1.10;;;;;;;23.82;59.99;101807.88;10497442;28;20090;-68
2022/07/03 10:20:47;;;;;;;1.75;1.13;;;;;;;23.42;60.92;101820.19;10497202;28;20093;-69
2022/07/03 10:25:48;;;;;;;3.05;1.50;;;;;;;22.44;61.82;101826.47;10496264;28;20039;-68
2022/07/03 10:30:48;;;;;;;0.70;0.70;;;;;;;21.80;62.72;101832.34;10497010;28;20371;-67
2022/07/03 10:35:53;;;;;;;1.92;1.08;;;;;;;22.46;61.75;101837.22;10504136;28;20032;-68
2022/07/03 10:46:21;;;;;;;1.73;1.35;;;;;;;25.24;56.77;101832.78;10504141;28;20029;-69
2022/07/03 10:51:22;;;;;;;1.02;1.02;;;;;;;26.72;54.23;101828.28;10505319;28;20043;-68
2022/07/03 10:56:22;;;;;;;1.98;1.30;;;;;;;25.20;56.55;101834.41;10504608;28;20040;-69
2022/07/03 11:01:27;;;;;;;0.80;0.80;;;;;;;24.09;58.29;101835.44;10487362;28;20046;-67
2022/07/03 11:06:42;;;;;;;0.77;0.77;;;;;;;23.52;58.93;101839.66;10505199;28;20036;-66
2022/07/03 11:11:55;;;;;;;3.13;1.48;;;;;;;23.63;57.70;101840.59;10504666;28;20036;-67
2022/07/03 11:17:21;;;;;;;1.08;1.08;;;;;;;27.25;52.41;101834.16;10504320;28;20142;-69
2022/07/03 11:22:21;;;;;;;3.17;2.05;;;;;;;25.85;55.40;101834.00;10504256;28;20380;-69
2022/07/03 11:27:23;;;;;;;2.10;1.63;;;;;;;25.86;55.86;101832.88;10503316;28;20028;-69
2022/07/03 11:32:51;;;;;;;1.38;1.23;;;;;;;24.62;55.84;101833.59;10503123;28;20106;-68
2022/07/03 11:37:51;;;;;;;0.95;0.95;;;;;;;23.53;58.62;101832.19;10476804;28;20040;-70
2022/07/03 11:42:51;;;;;;;5.40;1.45;;;;;;;22.95;59.79;101834.63;10501284;28;20149;-69
2022/07/03 11:47:52;;;;;;;3.13;1.48;;;;;;;22.32;59.75;101845.03;10503258;28;20471;-69
2022/07/03 11:52:52;;;;;;;3.28;2.08;;;;;;;21.93;60.73;101856.00;10484806;28;20032;-70
2022/07/03 11:57:53;;;;;;;2.78;1.60;;;;;;;21.67;61.79;101859.41;10484238;28;20078;-67
2022/07/03 12:02:53;;;;;;;2.03;1.52;;;;;;;24.11;57.80;101849.88;10501658;28;20507;-67
2022/07/03 12:08:04;;;;;;;1.80;1.17;;;;;;;24.97;55.43;101859.81;10503447;28;20037;-68
2022/07/03 12:13:04;;;;;;;1.50;1.40;;;;;;;26.64;50.67;101844.44;10500176;28;20033;-69
2022/07/03 12:18:04;;;;;;;1.90;1.80;;;;;;;27.12;49.78;101844.78;10501747;28;20039;-69
2022/07/03 12:23:05;;;;;;;5.57;1.27;;;;;;;26.72;48.69;101844.97;10484100;28;20334;-70
2022/07/03 12:28:05;;;;;;;1.38;1.02;;;;;;;24.71;48.83;101868.00;10500679;28;20450;-68
2022/07/03 12:33:06;;;;;;;1.20;1.20;;;;;;;24.31;50.92;101866.63;10500989;28;20071;-69
2022/07/03 12:38:06;;;;;;;1.42;1.33;;;;;;;24.39;51.29;101858.94;10499299;28;20380;-69
2022/07/03 12:43:06;;;;;;;1.13;1.13;;;;;;;23.39;54.06;101865.78;10466667;28;20120;-69
2022/07/03 12:48:07;;;;;;;1.20;0.93;;;;;;;22.82;55.23;101879.16;10482799;28;20109;-70
2022/07/03 12:53:07;;;;;;;3.03;1.65;;;;;;;23.22;54.58;101865.03;10483726;28;20427;-70
2022/07/03 13:03:31;;;;;;;2.15;1.98;;;;;;;22.82;56.15;101876.41;10499159;28;20052;-70
2022/07/03 13:08:32;;;;;;;1.50;1.40;;;;;;;24.31;54.23;101872.19;10499034;28;20332;-70
2022/07/03 13:13:46;;;;;;;6.45;2.83;;;;;;;25.00;53.12;101873.13;10499011;28;20028;-70
2022/07/03 13:19:00;;;;;;;2.38;2.03;;;;;;;25.27;52.54;101878.50;10500206;28;20032;-70
2022/07/03 13:24:00;;;;;;;2.08;1.60;;;;;;;24.27;53.99;101876.56;10481086;28;20055;-70
2022/07/03 13:29:01;;;;;;;5.05;1.92;;;;;;;23.41;55.41;101896.75;10499039;28;20037;-70
2022/07/03 13:34:01;;;;;;;1.52;1.42;;;;;;;22.74;57.81;101894.22;10497282;28;20037;-71
2022/07/03 13:39:01;;;;;;;2.75;2.00;;;;;;;22.65;58.85;101901.28;10498466;28;20036;-71
2022/07/03 13:44:02;;;;;;;6.05;2.28;;;;;;;22.60;58.04;101902.06;10480043;28;20029;-70
2022/07/03 13:49:02;;;;;;;6.80;1.75;;;;;;;23.87;56.55;101905.56;10498126;28;20078;-68
2022/07/03 13:54:03;;;;;;;2.45;1.77;;;;;;;25.66;53.60;101895.53;10480086;28;20048;-71
2022/07/03 13:59:03;;;;;;;1.85;1.67;;;;;;;26.22;50.23;101897.50;10497514;28;20029;-69
2022/07/03 14:04:04;;;;;;;1.95;1.83;;;;;;;26.12;49.44;101901.13;10496350;28;20064;-73
2022/07/03 14:09:04;;;;;;;1.17;1.17;;;;;;;25.62;51.41;101902.75;10510640;28;20478;-73
2022/07/03 14:14:05;;;;;;;4.90;1.23;;;;;;;25.06;52.74;101896.97;10511473;28;20467;-75
2022/07/03 14:19:07;;;;;;;1.75;1.13;;;;;;;24.98;52.64;101898.34;10492703;28;20041;-75
2022/07/03 14:24:07;;;;;;;1.55;1.50;;;;;;;25.01;51.24;101908.03;10511263;28;20046;-76
2022/07/03 14:34:28;;;;;;;3.40;1.70;;;;;;;24.77;52.98;101914.03;10509769;28;20037;-74
2022/07/03 14:39:29;;;;;;;0.98;0.98;;;;;;;24.90;52.69;101909.94;10464189;28;20049;-76
2022/07/03 14:44:29;;;;;;;2.30;1.90;;;;;;;24.53;52.73;101909.97;10525222;28;20040;-75
2022/07/03 14:49:30;;;;;;;4.65;1.77;;;;;;;24.03;53.86;101914.00;10524181;28;20032;-75
2022/07/03 14:54:31;;;;;;;1.48;1.38;;;;;;;24.20;54.00;101928.53;10516905;28;20044;-75
2022/07/03 14:59:47;;;;;;;1.77;1.45;;;;;;;24.39;52.28;101912.34;10510900;28;20171;-75
2022/07/03 15:05:06;;;;;;;1.42;1.33;;;;;;;24.18;52.91;101916.06;10493273;28;20044;-75
2022/07/03 15:10:08;;;;;;;10.18;2.20;;;;;;;24.05;53.83;101911.81;10511430;28;20032;-74
2022/07/03 15:15:10;;;;;;;6.82;2.03;;;;;;;23.90;53.25;101912.50;10492066;28;20039;-74
2022/07/03 15:20:12;;;;;;;2.25;1.63;;;;;;;23.39;53.98;101920.25;10485860;28;20533;-76
2022/07/03 15:25:15;;;;;;;5.65;1.52;;;;;;;23.52;53.86;101919.84;10487368;28;20028;-74
2022/07/03 15:30:16;;;;;;;3.17;1.52;;;;;;;22.99;54.52;101921.41;10502766;28;20051;-74
2022/07/03 15:35:17;;;;;;;3.53;1.70;;;;;;;23.24;54.41;101917.28;10485414;28;20080;-75
2022/07/03 15:40:25;;;;;;;1.70;1.40;;;;;;;23.57;54.40;101919.03;10485786;28;20116;-74
2022/07/03 15:45:25;;;;;;;2.75;2.38;;;;;;;22.91;54.40;101911.59;10484231;28;20070;-75
2022/07/03 15:50:28;;;;;;;2.65;1.58;;;;;;;22.82;55.22;101921.41;10501990;28;20029;-74
2022/07/03 15:55:33;;;;;;;1.40;1.40;;;;;;;22.93;55.49;101925.16;10501307;28;20032;-74
2022/07/03 16:00:35;;;;;;;4.40;1.70;;;;;;;23.03;55.53;101927.25;10500995;28;20527;-75
2022/07/03 16:05:35;;;;;;;3.72;1.83;;;;;;;22.54;56.57;101927.06;10503224;28;20053;-76
2022/07/03 16:10:36;;;;;;;2.28;1.83;;;;;;;22.18;56.67;101941.13;10501931;28;20093;-75
2022/07/03 16:15:42;;;;;;;7.18;2.70;;;;;;;22.35;57.74;101927.34;10501225;28;20032;-74
2022/07/03 16:20:43;;;;;;;3.33;1.50;;;;;;;22.26;57.52;101937.13;10502788;28;20033;-75
2022/07/03 16:25:43;;;;;;;3.25;1.42;;;;;;;22.16;57.11;101942.47;10482959;28;20024;-75
2022/07/03 16:30:48;;;;;;;9.85;2.67;;;;;;;21.63;57.39;101932.63;10482222;28;20384;-74
2022/07/03 16:35:53;;;;;;;1.50;1.40;;;;;;;20.96;58.94;101922.16;10483654;28;20044;-74
2022/07/03 16:40:53;;;;;;;11.93;2.15;;;;;;;20.75;58.94;101921.72;10501366;28;20032;-75
2022/07/03 16:45:54;;;;;;;3.75;2.33;;;;;;;20.43;58.58;101923.94;10499443;28;20379;-75
2022/07/03 16:51:00;;;;;;;1.52;1.30;;;;;;;20.26;59.61;101926.56;10482550;28;20078;-74
2022/07/03 16:56:00;;;;;;;3.77;1.47;;;;;;;20.06;59.93;101915.88;10484465;28;20020;-74
2022/07/03 17:01:04;;;;;;;2.72;1.10;;;;;;;19.89;60.50;101921.22;10481547;28;20126;-74
2022/07/03 17:06:05;;;;;;;4.10;2.08;;;;;;;19.60;62.55;101914.66;10500767;28;20396;-74
2022/07/03 17:11:05;;;;;;;8.30;2.40;;;;;;;19.58;64.01;101916.78;10508131;28;20043;-74
2022/07/03 17:16:06;;;;;;;4.65;1.95;;;;;;;19.64;61.69;101915.88;10504168;28;20115;-74
2022/07/03 17:21:06;;;;;;;3.08;1.90;;;;;;;19.46;61.89;101916.75;10484561;28;20029;-75
2022/07/03 17:26:07;;;;;;;6.07;1.85;;;;;;;19.39;63.35;101912.41;10498305;28;20035;-75
2022/07/03 17:31:14;;;;;;;2.78;2.10;;;;;;;19.28;64.46;101920.34;10486140;28;20426;-74
2022/07/03 17:36:24;;;;;;;9.68;2.65;;;;;;;19.25;62.98;101931.81;10517454;28;20035;-75
2022/07/03 17:41:29;;;;;;;4.88;2.20;;;;;;;19.11;66.43;101934.94;10522945;28;20033;-74
2022/07/03 17:46:30;;;;;;;2.10;1.90;;;;;;;19.19;65.53;101921.72;10509240;28;20115;-75
2022/07/03 17:51:30;;;;;;;3.97;2.22;;;;;;;19.38;65.42;101936.28;10499720;28;20119;-74
2022/07/03 17:56:31;;;;;;;3.97;1.80;;;;;;;19.25;63.63;101948.28;10499971;28;20485;-74
2022/07/03 18:01:31;;;;;;;9.88;1.98;;;;;;;18.85;66.02;101941.56;10479833;28;20411;-75
2022/07/03 18:06:32;;;;;;;2.28;1.98;;;;;;;18.67;65.65;101951.41;10480973;28;20021;-74
2022/07/03 18:11:42;;;;;;;3.70;2.03;;;;;;;18.68;65.30;101952.25;10481136;28;20025;-74
2022/07/03 18:16:44;;;;;;;6.32;1.38;;;;;;;18.63;65.01;101952.91;10480484;28;20036;-74
2022/07/03 18:21:44;;;;;;;4.82;1.77;;;;;;;18.51;68.68;101960.22;10480435;28;20124;-74
2022/07/03 18:26:46;;;;;;;5.57;1.10;;;;;;;18.42;65.76;101958.81;10498509;28;20032;-74
2022/07/03 18:31:46;;;;;;;3.97;2.10;;;;;;;18.19;65.81;101951.19;10497371;28;20060;-74
2022/07/03 18:36:47;;;;;;;1.90;1.10;;;;;;;18.15;65.91;101964.50;10479895;28;20063;-74
2022/07/03 18:41:47;;;;;;;1.45;1.42;;;;;;;18.09;66.30;101958.03;10496646;28;20036;-73
2022/07/03 18:46:53;;;;;;;2.08;1.52;;;;;;;18.02;66.18;101959.94;10496989;28;20028;-74
2022/07/03 18:52:02;;;;;;;4.77;2.67;;;;;;;17.89;66.49;101955.38;10499187;28;20036;-74
2022/07/03 18:57:06;;;;;;;2.65;1.65;;;;;;;17.82;67.76;101956.50;10487079;28;20090;-74
2022/07/03 19:02:14;;;;;;;2.88;1.50;;;;;;;17.79;67.85;101960.53;10487165;28;20052;-75
2022/07/03 19:07:28;;;;;;;5.68;1.60;;;;;;;17.65;67.14;101957.00;10504355;28;20036;-74
2022/07/03 19:12:37;;;;;;;5.32;2.88;;;;;;;17.56;66.87;101955.56;10502461;28;20056;-74
2022/07/03 19:17:37;;;;;;;4.78;1.58;;;;;;;17.46;66.88;101959.84;10502612;28;20036;-74
2022/07/03 19:22:38;;;;;;;2.95;1.15;;;;;;;17.35;66.96;101955.84;10503491;28;20040;-75
2022/07/03 19:27:39;;;;;;;3.72;2.20;;;;;;;17.23;67.25;101954.84;10504109;28;20045;-75
2022/07/03 19:32:40;;;;;;;5.22;2.17;;;;;;;17.14;68.29;101963.31;10503065;28;20083;-74
2022/07/03 19:37:41;;;;;;;9.05;1.83;;;;;;;17.07;67.62;101961.63;10513734;28;20059;-74
2022/07/03 19:42:42;;;;;;;7.72;2.45;;;;;;;16.95;67.60;101962.31;10516133;28;20041;-74
2022/07/03 19:47:42;;;;;;;4.35;2.13;;;;;;;16.88;67.51;101966.97;10487055;28;20380;-74
2022/07/03 19:52:42;;;;;;;5.07;1.27;;;;;;;16.76;67.96;101968.66;10502757;28;20486;-74
2022/07/03 19:57:43;;;;;;;2.40;1.83;;;;;;;16.69;69.04;101973.28;10502783;28;20189;-74
2022/07/03 20:02:43;;;;;;;1.38;1.27;;;;;;;16.60;68.87;101980.00;10484683;28;20060;-73
2022/07/03 20:07:44;;;;;;;1.38;1.13;;;;;;;16.52;68.37;101981.88;10503501;28;20036;-74
2022/07/03 20:12:44;;;;;;;3.10;1.35;;;;;;;16.41;68.00;101990.72;10503357;28;20064;-72
2022/07/03 20:17:44;;;;;;;5.72;2.00;;;;;;;16.32;68.99;101991.16;10503207;28;20482;-74
2022/07/03 20:22:45;;;;;;;4.97;1.42;;;;;;;16.23;68.53;101994.06;10504434;28;20044;-74
2022/07/03 20:27:45;;;;;;;3.45;1.58;;;;;;;16.18;68.77;101995.75;10501090;28;20474;-74
2022/07/03 20:32:46;;;;;;;3.58;1.60;;;;;;;16.10;69.79;101994.06;10501093;28;20379;-74
2022/07/03 20:37:46;;;;;;;10.85;2.50;;;;;;;16.06;70.29;101992.78;10501035;28;20032;-74
2022/07/03 20:42:47;;;;;;;3.10;1.60;;;;;;;15.96;70.36;101984.16;10483890;28;20029;-73
2022/07/03 20:47:47;;;;;;;2.97;1.70;;;;;;;15.93;70.90;101999.06;10482445;28;20430;-73
2022/07/03 20:52:51;;;;;;;5.32;2.20;;;;;;;15.85;70.88;102006.59;10500902;28;20044;-73
2022/07/03 20:57:52;;;;;;;1.83;1.73;;;;;;;15.73;70.87;102007.22;10500849;28;20033;-74
2022/07/03 21:02:52;;;;;;;4.38;2.13;;;;;;;15.62;70.84;102018.66;10501289;28;20052;-74
2022/07/03 21:07:52;;;;;;;2.72;2.08;;;;;;;15.56;71.04;102016.75;10499250;28;20047;-74
2022/07/03 21:12:53;;;;;;;13.50;2.83;;;;;;;15.53;71.14;102020.72;10497809;28;20036;-74
2022/07/03 21:17:53;;;;;;;1.73;1.63;;;;;;;15.56;71.74;102023.06;10480905;28;20032;-73
2022/07/03 21:22:54;;;;;;;2.05;1.83;;;;;;;15.57;71.15;102023.88;10465829;28;20041;-73
2022/07/03 21:27:54;;;;;;;6.50;2.30;;;;;;;15.60;71.42;102026.22;10497496;28;20090;-74
2022/07/03 21:32:54;;;;;;;7.57;3.67;;;;;;;15.58;71.67;102031.06;10481187;28;20043;-72
2022/07/03 21:37:55;;;;;;;3.35;1.85;;;;;;;15.52;71.52;102026.41;10498169;28;20032;-75
2022/07/03 21:42:55;;;;;;;4.70;2.40;;;;;;;15.48;72.07;102038.78;10500417;28;20037;-76
2022/07/03 21:47:57;;;;;;;10.80;3.00;;;;;;;15.46;71.90;102036.22;10498046;28;20025;-73
2022/07/03 21:52:57;;;;;;;9.05;2.15;;;;;;;15.49;72.44;102035.00;10481970;28;20029;-74
2022/07/03 21:57:57;;;;;;;6.10;3.28;;;;;;;15.46;72.52;102028.03;10498820;28;20033;-74
2022/07/03 22:02:58;;;;;;;1.90;1.80;;;;;;;15.39;72.33;102021.72;10483116;28;20461;-74
2022/07/03 22:08:00;;;;;;;3.20;2.30;;;;;;;15.36;72.44;102035.78;10511005;28;20028;-73
2022/07/03 22:13:00;;;;;;;3.88;2.50;;;;;;;15.29;73.02;102032.16;10514146;28;20051;-73
2022/07/03 22:18:00;;;;;;;1.85;1.48;;;;;;;15.23;72.75;102019.31;10500138;28;20051;-74
2022/07/03 22:23:01;;;;;;;7.00;2.35;;;;;;;15.24;73.30;102037.38;10481157;28;20040;-75
2022/07/03 22:28:01;;;;;;;2.15;1.98;;;;;;;15.17;74.53;102040.06;10484547;28;20051;-75
2022/07/03 22:33:02;;;;;;;4.95;2.53;;;;;;;15.20;74.33;102033.38;10506661;28;20463;-74
2022/07/03 22:38:02;;;;;;;2.53;2.33;;;;;;;15.19;74.98;102024.34;10505979;28;20063;-73
2022/07/03 22:43:02;;;;;;;3.88;2.42;;;;;;;15.17;75.83;102022.84;10506536;28;20522;-74
2022/07/03 22:48:03;;;;;;;2.28;2.05;;;;;;;15.15;75.60;102025.75;10506852;28;20064;-74
2022/07/03 22:53:03;;;;;;;4.90;2.30;;;;;;;15.11;75.91;102028.06;10505580;28;20140;-74
2022/07/03 22:58:04;;;;;;;1.90;1.52;;;;;;;15.07;76.21;102026.78;10506511;28;20372;-73
2022/07/03 23:03:04;;;;;;;3.08;2.15;;;;;;;15.05;76.12;102011.66;10505883;28;20045;-75
2022/07/03 23:08:04;;;;;;;5.18;1.92;;;;;;;15.06;78.21;102005.13;10505200;28;20037;-75
2022/07/03 23:13:05;;;;;;;8.05;2.58;;;;;;;15.05;80.23;101998.00;10505212;28;20119;-74
2022/07/03 23:18:05;;;;;;;11.10;3.95;;;;;;;14.99;79.28;101996.91;10504534;28;20040;-74
2022/07/03 23:23:06;;;;;;;3.78;2.92;;;;;;;14.91;78.62;101994.34;10505422;28;20120;-73
2022/07/03 23:28:06;;;;;;;7.60;3.15;;;;;;;14.77;78.11;101992.56;10503416;28;20102;-74
2022/07/03 23:33:06;;;;;;;3.00;2.58;;;;;;;14.68;78.44;101983.72;10503368;28;20388;-73
2022/07/03 23:38:07;;;;;;;6.90;2.72;;;;;;;14.64;77.97;101998.75;10503711;28;20028;-73